Time;durP1;ratioP1;P1;durP2;ratioP2;P2;SDS_P1;SDS_P2;PMS_P1;PMS_P2;Temp;Humidity;BMP_temperature;BMP_pressure;BME280_temperature;BME280_humidity;BME280_pressure;Samples;Min_cycle;Max_cycle;Signal;HPM_P1;HPM_P2
2022/08/11 00:01:54;;;;;;;14.80;3.22;;;20.70;99.90;;;;;;5042863;28;20076;-56
2022/08/11 00:04:24;;;;;;;9.50;3.35;;;20.70;99.90;;;;;;5008110;28;20052;-54
2022/08/11 00:06:51;;;;;;;5.07;2.72;;;20.70;99.90;;;;;;5044844;28;20128;-56
2022/08/11 00:09:20;;;;;;;9.40;2.85;;;20.70;99.90;;;;;;5040332;28;20144;-55
2022/08/11 00:11:48;;;;;;;9.93;3.65;;;20.60;99.90;;;;;;5029217;28;20120;-54
2022/08/11 00:14:16;;;;;;;7.30;2.75;;;20.60;99.90;;;;;;5038100;28;20088;-53
2022/08/11 00:16:51;;;;;;;8.98;3.20;;;20.60;99.90;;;;;;5046662;28;20120;-55
2022/08/11 00:19:29;;;;;;;6.60;2.95;;;20.50;99.90;;;;;;5021522;28;20132;-56
2022/08/11 00:22:20;;;;;;;10.02;3.30;;;20.50;99.90;;;;;;5045008;28;20037;-54
2022/08/11 00:24:47;;;;;;;9.50;3.30;;;20.40;99.90;;;;;;5039658;28;20080;-55
2022/08/11 00:27:34;;;;;;;10.32;3.88;;;20.40;99.90;;;;;;5029639;28;20041;-54
2022/08/11 00:30:01;;;;;;;8.07;3.40;;;20.40;99.90;;;;;;5036845;28;20510;-54
2022/08/11 00:32:28;;;;;;;8.70;3.75;;;20.30;99.90;;;;;;5038223;28;20129;-53
2022/08/11 00:34:54;;;;;;;9.25;3.13;;;20.20;99.90;;;;;;5022348;28;20149;-53
2022/08/11 00:37:48;;;;;;;7.30;3.15;;;20.20;99.90;;;;;;5022010;28;20427;-57
2022/08/11 00:40:25;;;;;;;6.88;3.30;;;20.20;99.90;;;;;;5021631;28;20051;-54
2022/08/11 00:43:20;;;;;;;7.97;3.38;;;20.20;99.90;;;;;;5020673;28;20133;-52
2022/08/11 00:46:01;;;;;;;11.18;4.00;;;20.20;99.90;;;;;;5037880;28;20048;-54
2022/08/11 00:48:31;;;;;;;10.70;3.72;;;20.20;99.90;;;;;;5021685;28;20095;-54
2022/08/11 00:51:37;;;;;;;6.38;3.40;;;20.10;99.90;;;;;;5018186;28;20045;-55
2022/08/11 00:54:57;;;;;;;8.38;3.70;;;20.10;99.90;;;;;;5027588;28;20425;-55
2022/08/11 00:57:52;;;;;;;8.52;3.97;;;20.00;99.90;;;;;;5028656;28;20148;-55
2022/08/11 01:00:23;;;;;;;11.02;3.35;;;20.10;99.90;;;;;;5021901;28;20134;-55
2022/08/11 01:03:11;;;;;;;12.05;4.20;;;20.00;99.90;;;;;;5010510;28;20099;-53
2022/08/11 01:05:59;;;;;;;11.30;3.38;;;20.00;99.90;;;;;;4993056;28;20060;-51
2022/08/11 01:08:48;;;;;;;5.10;3.22;;;19.90;99.90;;;;;;5013816;28;20131;-56
2022/08/11 01:11:42;;;;;;;12.68;3.45;;;19.90;99.90;;;;;;5037579;28;20568;-52
2022/08/11 01:14:59;;;;;;;10.10;3.05;;;19.90;99.90;;;;;;5041405;28;20452;-55
2022/08/11 01:17:34;;;;;;;7.55;3.28;;;19.90;99.90;;;;;;5046092;28;20049;-54
2022/08/11 01:20:23;;;;;;;6.95;3.10;;;19.80;99.90;;;;;;5037408;28;20444;-55
2022/08/11 01:23:48;;;;;;;11.70;4.60;;;19.70;99.90;;;;;;5027930;28;20060;-55
2022/08/11 01:27:16;;;;;;;11.23;3.33;;;19.70;99.90;;;;;;4672127;28;10000667;-54
2022/08/11 01:30:07;;;;;;;11.52;3.08;;;19.70;99.90;;;;;;4990600;28;20034;-50
2022/08/11 01:33:01;;;;;;;8.73;3.38;;;19.70;99.90;;;;;;4973279;28;20062;-50
2022/08/11 01:35:50;;;;;;;5.03;2.63;;;19.70;99.90;;;;;;5005751;28;20049;-53
2022/08/11 01:38:25;;;;;;;7.63;3.15;;;19.60;99.90;;;;;;5011136;28;20128;-54
2022/08/11 01:41:07;;;;;;;9.10;4.22;;;19.50;99.90;;;;;;5021463;28;20132;-53
2022/08/11 01:46:42;;;;;;;12.10;3.58;;;19.50;99.90;;;;;;5040552;28;20041;-55
2022/08/11 01:49:11;;;;;;;7.97;3.65;;;19.40;99.90;;;;;;5027980;28;20234;-54
2022/08/11 01:52:13;;;;;;;8.13;4.00;;;19.40;99.90;;;;;;5021937;28;20045;-53
2022/08/11 01:54:51;;;;;;;9.30;3.45;;;19.30;99.90;;;;;;5029858;28;20076;-54
2022/08/11 01:57:57;;;;;;;9.65;3.72;;;19.20;99.90;;;;;;5023101;28;20103;-53
2022/08/11 02:00:27;;;;;;;11.43;3.75;;;19.20;99.90;;;;;;5013420;28;20057;-54
2022/08/11 02:03:08;;;;;;;9.05;3.55;;;19.10;99.90;;;;;;5020719;28;20046;-53
2022/08/11 02:05:47;;;;;;;4.70;3.20;;;19.10;99.90;;;;;;5001056;28;20531;-51
2022/08/11 02:08:23;;;;;;;7.60;3.72;;;19.20;99.90;;;;;;5038845;28;20144;-55
2022/08/11 02:11:30;;;;;;;8.50;3.47;;;19.20;99.90;;;;;;5027176;28;20048;-55
2022/08/11 02:14:28;;;;;;;11.27;3.33;;;19.10;99.90;;;;;;5028041;28;20139;-54
2022/08/11 02:17:20;;;;;;;8.02;3.20;;;19.10;99.90;;;;;;5019849;28;20087;-54
2022/08/11 02:26:30;;;;;;;9.07;3.33;;;19.10;99.90;;;;;;5032834;28;20041;-53
2022/08/11 02:29:12;;;;;;;6.45;3.75;;;19.00;99.90;;;;;;5024787;28;20052;-53
2022/08/11 02:35:19;;;;;;;8.15;4.10;;;18.90;99.90;;;;;;5035855;28;20063;-53
2022/08/11 02:38:14;;;;;;;8.77;3.63;;;18.90;99.90;;;;;;5021721;28;20156;-56
2022/08/11 02:44:12;;;;;;;5.30;3.05;;;18.80;99.90;;;;;;5039900;28;20041;-55
2022/08/11 02:47:18;;;;;;;10.63;3.80;;;18.80;99.90;;;;;;5033043;28;20072;-55
2022/08/11 02:50:02;;;;;;;8.75;3.72;;;18.80;99.90;;;;;;5021642;28;20091;-54
2022/08/11 02:52:52;;;;;;;8.05;3.90;;;18.70;99.90;;;;;;5045687;28;20048;-53
2022/08/11 02:55:23;;;;;;;9.73;4.22;;;18.60;99.90;;;;;;5035520;28;20087;-54
2022/08/11 02:58:35;;;;;;;10.13;3.60;;;18.50;99.90;;;;;;5024763;28;20503;-53
2022/08/11 03:01:27;;;;;;;11.98;4.03;;;18.50;99.90;;;;;;5031038;28;20084;-58
2022/08/11 03:03:56;;;;;;;6.85;3.83;;;18.40;99.90;;;;;;5019831;28;20095;-54
2022/08/11 03:06:46;;;;;;;9.93;4.03;;;18.40;99.90;;;;;;5033167;28;20081;-55
2022/08/11 03:09:36;;;;;;;6.97;4.07;;;18.40;99.90;;;;;;5043062;28;20475;-55
2022/08/11 03:18:15;;;;;;;6.85;4.60;;;18.40;99.90;;;;;;5048273;28;20132;-51
2022/08/11 03:20:50;;;;;;;12.15;4.28;;;18.40;99.90;;;;;;5020512;28;20076;-53
2022/08/11 03:23:32;;;;;;;8.88;3.85;;;18.50;99.90;;;;;;5011094;28;20132;-56
2022/08/11 03:26:07;;;;;;;6.32;3.60;;;18.50;99.90;;;;;;5032904;28;20128;-52
2022/08/11 03:28:44;;;;;;;9.95;4.50;;;18.40;99.90;;;;;;5028203;28;20136;-52
2022/08/11 03:31:36;;;;;;;6.03;3.58;;;18.30;99.90;;;;;;5024751;28;20555;-54
2022/08/11 03:34:07;;;;;;;10.75;4.10;;;18.30;99.90;;;;;;5025103;28;20132;-50
2022/08/11 03:37:11;;;;;;;10.18;3.70;;;18.30;99.90;;;;;;5044582;28;20081;-52
2022/08/11 03:39:55;;;;;;;9.85;3.60;;;18.30;99.90;;;;;;5017112;28;20095;-53
2022/08/11 03:42:53;;;;;;;5.47;3.33;;;18.10;99.90;;;;;;5049416;28;20576;-57
2022/08/11 03:45:34;;;;;;;5.65;3.42;;;18.00;99.90;;;;;;5036270;28;20485;-57
2022/08/11 03:48:21;;;;;;;7.43;3.65;;;18.00;99.90;;;;;;5049674;28;20531;-55
2022/08/11 03:51:08;;;;;;;5.25;3.05;;;18.00;99.90;;;;;;5036552;28;20479;-56
2022/08/11 03:54:07;;;;;;;4.88;2.80;;;18.10;99.90;;;;;;5016119;28;20128;-49
2022/08/11 03:57:14;;;;;;;12.57;3.60;;;18.00;99.90;;;;;;5038356;28;20468;-53
2022/08/11 04:00:03;;;;;;;4.80;2.75;;;18.00;99.90;;;;;;5028988;28;20044;-53
2022/08/11 04:02:53;;;;;;;7.57;3.10;;;17.90;99.90;;;;;;5044433;28;20490;-53
2022/08/11 04:06:01;;;;;;;6.25;3.00;;;17.90;99.90;;;;;;5043386;28;20475;-53
2022/08/11 04:08:36;;;;;;;4.28;2.72;;;17.90;99.90;;;;;;5014784;28;20060;-56
2022/08/11 04:11:35;;;;;;;4.53;3.50;;;18.00;99.90;;;;;;5024406;28;20055;-55
2022/08/11 04:17:36;;;;;;;7.53;3.33;;;17.80;99.90;;;;;;5040437;28;20045;-55
2022/08/11 04:20:17;;;;;;;6.72;3.42;;;17.90;99.90;;;;;;5030896;28;20049;-53
2022/08/11 04:23:22;;;;;;;8.88;4.40;;;17.90;99.90;;;;;;5021552;28;20133;-53
2022/08/11 04:26:21;;;;;;;10.60;3.22;;;17.90;99.90;;;;;;5019115;28;20045;-54
2022/08/11 04:29:12;;;;;;;5.65;2.90;;;17.90;99.90;;;;;;5013519;28;20136;-51
2022/08/11 04:32:10;;;;;;;6.25;3.22;;;17.90;99.90;;;;;;5040793;28;20464;-53
2022/08/11 04:35:04;;;;;;;7.07;3.33;;;17.80;99.90;;;;;;5029052;28;20091;-55
2022/08/11 04:38:10;;;;;;;4.13;3.45;;;17.80;99.90;;;;;;5037317;28;20129;-53
2022/08/11 04:41:16;;;;;;;11.32;3.42;;;17.80;99.90;;;;;;5006293;28;20087;-52
2022/08/11 04:44:20;;;;;;;6.93;4.05;;;17.90;99.90;;;;;;5021078;28;20085;-55
2022/08/11 05:02:50;;;;;;;8.60;3.83;;;17.90;99.90;;;;;;5041292;28;20053;-52
2022/08/11 05:05:41;;;;;;;7.13;4.05;;;17.90;99.90;;;;;;5028400;28;20081;-51
2022/08/11 05:08:44;;;;;;;37.70;9.18;;;18.00;99.90;;;;;;5040660;28;20053;-54
2022/08/11 05:11:48;;;;;;;9.73;4.13;;;18.00;99.90;;;;;;5028884;28;20440;-53
2022/08/11 05:34:53;;;;;;;10.35;4.70;;;18.50;99.90;;;;;;5020380;28;20045;-54
2022/08/11 05:37:31;;;;;;;11.60;5.25;;;18.50;99.90;;;;;;5012946;28;20148;-55
2022/08/11 05:57:35;;;;;;;21.13;8.02;;;19.00;99.90;;;;;;4999758;28;20109;-54
2022/08/11 06:00:17;;;;;;;28.45;6.75;;;19.10;99.90;;;;;;5025107;28;20049;-55
2022/08/11 06:02:54;;;;;;;25.10;6.88;;;19.10;99.90;;;;;;5033138;28;20124;-57
2022/08/11 06:05:21;;;;;;;12.88;5.88;;;19.20;99.90;;;;;;5023582;28;20503;-52
2022/08/11 06:07:52;;;;;;;13.93;6.32;;;19.30;99.90;;;;;;5051490;28;20084;-59
2022/08/11 06:10:32;;;;;;;18.70;5.93;;;19.40;99.90;;;;;;5026290;28;20085;-55
2022/08/11 06:12:59;;;;;;;17.02;7.25;;;19.50;99.90;;;;;;5013842;28;20527;-55
2022/08/11 06:15:27;;;;;;;14.02;6.65;;;19.60;99.90;;;;;;5044166;28;20087;-56
2022/08/11 06:17:54;;;;;;;14.55;6.57;;;19.50;99.90;;;;;;5031534;28;20081;-55
2022/08/11 06:20:21;;;;;;;17.27;7.93;;;19.60;99.90;;;;;;5026473;28;20108;-55
2022/08/11 06:23:03;;;;;;;18.90;7.38;;;19.60;99.90;;;;;;5013909;28;20080;-54
2022/08/11 06:25:34;;;;;;;21.90;8.27;;;19.80;99.90;;;;;;5025977;28;20120;-55
2022/08/11 06:28:05;;;;;;;25.95;9.23;;;19.80;99.90;;;;;;5036222;28;20499;-56
2022/08/11 06:30:40;;;;;;;28.25;11.68;;;19.90;99.90;;;;;;5041656;28;20532;-55
2022/08/11 06:33:10;;;;;;;24.55;12.18;;;20.00;99.90;;;;;;5024076;28;20073;-55
2022/08/11 06:36:06;;;;;;;28.30;10.90;;;20.00;99.90;;;;;;5041126;28;20056;-54
2022/08/11 06:38:52;;;;;;;27.50;12.50;;;20.10;99.90;;;;;;5004209;28;20405;-55
2022/08/11 06:41:31;;;;;;;34.50;13.85;;;20.10;99.90;;;;;;5022609;28;20591;-55
2022/08/11 06:44:13;;;;;;;30.23;13.50;;;20.20;99.90;;;;;;5034376;28;20045;-54
2022/08/11 06:46:50;;;;;;;32.55;14.02;;;20.20;99.90;;;;;;5025220;28;20083;-54
2022/08/11 06:52:06;;;;;;;34.78;15.18;;;20.30;99.90;;;;;;5032112;28;20076;-53
2022/08/11 06:55:05;;;;;;;33.15;12.95;;;20.40;99.90;;;;;;5048358;28;20047;-54
2022/08/11 07:00:27;;;;;;;27.42;12.55;;;20.40;99.90;;;;;;5033362;28;20072;-55
2022/08/11 07:03:07;;;;;;;24.10;12.02;;;20.40;99.90;;;;;;5008751;28;20053;-56
2022/08/11 07:05:37;;;;;;;21.05;10.93;;;20.40;99.90;;;;;;5044891;28;20548;-55
2022/08/11 07:17:10;;;;;;;25.38;11.38;;;20.30;99.90;;;;;;5023250;28;20088;-54
2022/08/11 07:31:00;;;;;;;35.88;13.55;;;20.50;99.90;;;;;;5014265;28;20132;-55
2022/08/11 07:33:39;;;;;;;29.38;12.73;;;20.60;99.90;;;;;;5023094;28;20053;-55
2022/08/11 07:36:26;;;;;;;23.83;11.82;;;20.60;99.90;;;;;;5001590;28;20053;-55
2022/08/11 07:38:55;;;;;;;26.77;11.43;;;20.60;99.90;;;;;;5020637;28;20049;-55
2022/08/11 07:41:22;;;;;;;23.85;11.57;;;20.60;99.90;;;;;;5010938;28;20090;-54
2022/08/11 07:43:54;;;;;;;27.17;11.55;;;20.50;99.90;;;;;;5005815;28;20479;-57
2022/08/11 07:54:39;;;;;;;30.02;13.13;;;20.50;99.90;;;;;;5011633;28;20605;-53
2022/08/11 08:19:49;;;;;;;22.85;9.85;;;21.40;99.90;;;;;;5021193;28;20459;-56
2022/08/11 08:22:19;;;;;;;22.02;10.32;;;21.50;99.90;;;;;;5030127;28;20140;-54
2022/08/11 08:25:06;;;;;;;21.23;10.88;;;21.60;99.90;;;;;;5036932;28;20048;-54
2022/08/11 08:27:37;;;;;;;27.33;11.18;;;21.70;99.90;;;;;;5030246;28;20127;-57
2022/08/11 08:32:50;;;;;;;21.13;10.73;;;21.90;99.90;;;;;;5047479;28;20049;-56
2022/08/11 08:35:17;;;;;;;24.60;11.70;;;22.10;99.90;;;;;;5022941;28;20077;-58
2022/08/11 08:37:44;;;;;;;22.67;10.65;;;22.20;99.90;;;;;;5011043;28;20191;-54
2022/08/11 08:40:13;;;;;;;25.90;11.32;;;22.30;99.90;;;;;;5041084;28;20045;-56
2022/08/11 08:42:53;;;;;;;24.65;11.90;;;22.40;99.90;;;;;;5028631;28;20088;-51
2022/08/11 08:45:20;;;;;;;26.02;11.98;;;22.50;99.90;;;;;;5012298;28;20045;-54
2022/08/11 08:48:00;;;;;;;27.65;12.07;;;22.60;99.90;;;;;;5028045;28;20095;-55
2022/08/11 08:53:28;;;;;;;24.65;12.18;;;22.70;99.90;;;;;;5013528;28;20081;-53
2022/08/11 08:55:55;;;;;;;26.45;11.48;;;22.80;99.90;;;;;;5023256;28;20071;-55
2022/08/11 08:58:22;;;;;;;21.48;11.38;;;22.80;99.90;;;;;;4994755;28;20084;-55
2022/08/11 09:00:50;;;;;;;21.17;11.23;;;22.90;99.90;;;;;;5023116;28;20611;-55
2022/08/11 09:03:18;;;;;;;21.92;10.52;;;23.00;99.90;;;;;;4994216;28;20061;-56
2022/08/11 09:06:05;;;;;;;20.50;10.82;;;23.10;99.90;;;;;;5040003;28;20052;-55
2022/08/11 09:08:32;;;;;;;20.63;9.88;;;23.30;99.90;;;;;;5028042;28;20187;-55
2022/08/11 09:13:45;;;;;;;18.63;8.38;;;23.50;99.90;;;;;;5027891;28;20120;-55
2022/08/11 09:16:31;;;;;;;15.70;8.80;;;23.50;99.90;;;;;;5025125;28;20052;-56
2022/08/11 09:18:59;;;;;;;21.75;8.55;;;23.70;99.90;;;;;;5028342;28;20128;-51
2022/08/11 09:21:26;;;;;;;23.77;9.23;;;23.80;99.90;;;;;;5012020;28;20071;-52
2022/08/11 09:26:58;;;;;;;18.58;8.38;;;24.00;99.90;;;;;;5025163;28;20427;-56
2022/08/11 09:29:28;;;;;;;19.15;9.40;;;24.10;99.90;;;;;;5010536;28;20088;-56
2022/08/11 09:31:56;;;;;;;16.20;10.07;;;24.20;99.90;;;;;;5022835;28;20087;-55
2022/08/11 09:34:23;;;;;;;19.15;9.43;;;24.20;99.90;;;;;;5014319;28;20145;-55
2022/08/11 09:42:22;;;;;;;12.20;7.35;;;24.50;99.90;;;;;;5032823;28;20056;-56
2022/08/11 09:44:51;;;;;;;14.48;9.65;;;24.60;99.90;;;;;;5051987;28;20056;-56
2022/08/11 09:47:30;;;;;;;13.18;7.88;;;24.80;99.90;;;;;;5028413;28;20045;-56
2022/08/11 09:49:59;;;;;;;25.02;8.48;;;25.00;99.80;;;;;;5031491;28;20050;-53
2022/08/11 09:52:33;;;;;;;17.17;6.90;;;25.10;99.30;;;;;;5026560;28;20114;-54
2022/08/11 09:55:00;;;;;;;16.17;6.55;;;25.50;98.70;;;;;;5015120;28;20077;-55
2022/08/11 10:00:13;;;;;;;14.40;5.43;;;26.50;96.50;;;;;;5031305;28;20081;-58
2022/08/11 10:02:43;;;;;;;16.27;5.43;;;26.90;94.60;;;;;;5043090;28;20049;-53
2022/08/11 10:07:57;;;;;;;12.68;4.35;;;27.50;92.20;;;;;;4989739;28;20091;-55
2022/08/11 10:10:24;;;;;;;12.48;4.43;;;27.80;89.00;;;;;;5014000;28;20077;-51
2022/08/11 10:13:03;;;;;;;8.15;4.03;;;28.00;86.90;;;;;;5024170;28;20464;-56
2022/08/11 10:15:33;;;;;;;11.98;4.10;;;28.20;82.30;;;;;;5028937;28;20743;-56
2022/08/11 10:21:09;;;;;;;26.17;4.15;;;28.70;79.20;;;;;;5030273;28;20081;-55
2022/08/11 10:26:53;;;;;;;7.78;3.97;;;29.10;79.70;;;;;;5050519;28;20045;-53
2022/08/11 10:35:26;;;;;;;11.52;3.85;;;29.60;71.30;;;;;;5018056;28;20439;-56
2022/08/11 10:37:53;;;;;;;12.48;3.78;;;29.70;73.70;;;;;;5033544;28;20049;-55
2022/08/11 10:40:43;;;;;;;10.45;3.00;;;29.70;72.90;;;;;;5022271;28;20042;-56
2022/08/11 10:43:12;;;;;;;11.68;4.25;;;29.80;71.90;;;;;;5005874;28;20292;-55
2022/08/11 10:48:34;;;;;;;11.10;2.80;;;29.40;68.00;;;;;;5036341;28;20080;-58
2022/08/11 10:51:12;;;;;;;10.77;2.65;;;29.10;68.50;;;;;;5018738;28;20136;-55
2022/08/11 10:59:25;;;;;;;10.05;3.85;;;28.80;67.80;;;;;;5025884;28;20080;-57
2022/08/11 11:01:52;;;;;;;11.02;3.38;;;28.80;67.80;;;;;;5032065;28;20064;-55
2022/08/11 11:04:27;;;;;;;9.07;3.00;;;28.70;66.30;;;;;;5020791;28;20107;-55
2022/08/11 11:07:39;;;;;;;10.25;2.50;;;28.60;63.40;;;;;;5012367;28;20128;-57
2022/08/11 11:10:10;;;;;;;10.95;2.22;;;28.50;62.60;;;;;;4981258;28;21098;-56
2022/08/11 11:18:17;;;;;;;7.13;3.38;;;28.40;63.70;;;;;;5015291;28;20076;-55
2022/08/11 11:21:07;;;;;;;9.23;2.53;;;28.40;62.90;;;;;;5011385;28;20141;-55
2022/08/11 11:23:49;;;;;;;9.60;1.95;;;28.40;61.10;;;;;;4996273;28;20290;-56
2022/08/11 11:26:56;;;;;;;9.73;2.20;;;28.50;60.10;;;;;;5039714;28;20042;-56
2022/08/11 11:29:36;;;;;;;7.13;2.00;;;28.40;55.90;;;;;;5012389;28;20136;-56
2022/08/11 11:32:24;;;;;;;13.77;2.40;;;28.40;57.40;;;;;;5019727;28;20107;-56
2022/08/11 11:35:12;;;;;;;6.60;1.85;;;28.50;58.90;;;;;;5032936;28;20120;-52
2022/08/11 11:37:39;;;;;;;12.95;2.50;;;28.50;57.80;;;;;;5035171;28;20060;-56
2022/08/11 11:40:26;;;;;;;4.88;1.70;;;28.60;57.70;;;;;;5034461;28;20470;-56
2022/08/11 11:42:58;;;;;;;4.03;1.75;;;28.60;58.80;;;;;;5028019;28;20053;-56
2022/08/11 11:45:24;;;;;;;12.32;2.00;;;28.70;58.60;;;;;;5025726;28;20053;-56
2022/08/11 11:47:53;;;;;;;5.72;1.90;;;28.70;58.50;;;;;;5024995;28;20259;-56
2022/08/11 11:50:25;;;;;;;4.10;2.25;;;28.70;58.60;;;;;;5044852;28;20095;-57
2022/08/11 11:52:57;;;;;;;15.75;2.58;;;28.80;57.10;;;;;;5034442;28;20522;-55
2022/08/11 11:55:25;;;;;;;14.93;2.92;;;28.80;57.80;;;;;;4654617;28;10000807;-56
2022/08/11 12:03:29;;;;;;;11.02;1.90;;;28.90;55.90;;;;;;5030696;28;20245;-57
2022/08/11 12:05:56;;;;;;;5.28;2.15;;;28.90;55.50;;;;;;5013284;28;20053;-56
2022/08/11 12:08:23;;;;;;;3.97;1.30;;;28.90;55.80;;;;;;5009103;28;20217;-56
2022/08/11 12:13:49;;;;;;;5.80;1.95;;;28.90;54.20;;;;;;5031195;28;20049;-55
2022/08/11 12:16:17;;;;;;;7.15;1.92;;;29.00;53.60;;;;;;5009652;28;20099;-56
2022/08/11 12:19:03;;;;;;;8.60;2.63;;;29.00;54.40;;;;;;5011899;28;20106;-56
2022/08/11 12:21:30;;;;;;;6.90;2.03;;;29.00;54.40;;;;;;5022602;28;20045;-56
2022/08/11 12:29:44;;;;;;;13.07;2.35;;;29.20;53.90;;;;;;5018574;28;20240;-56
2022/08/11 12:32:10;;;;;;;17.13;3.55;;;29.30;53.40;;;;;;5011387;28;20539;-55
2022/08/11 12:34:37;;;;;;;6.15;1.35;;;29.30;53.50;;;;;;5029878;28;20041;-53
2022/08/11 12:37:07;;;;;;;8.18;1.90;;;29.40;52.50;;;;;;5013227;28;20334;-57
2022/08/11 12:45:57;;;;;;;14.20;2.15;;;29.60;51.80;;;;;;5024870;28;20046;-55
2022/08/11 12:54:43;;;;;;;9.98;2.05;;;29.70;49.90;;;;;;5022661;28;20507;-54
2022/08/11 13:05:40;;;;;;;15.70;1.98;;;30.00;48.50;;;;;;5010671;28;20135;-55
2022/08/11 13:08:16;;;;;;;7.43;1.60;;;30.00;49.90;;;;;;5022081;28;20091;-57
2022/08/11 13:13:29;;;;;;;6.28;1.30;;;30.10;49.80;;;;;;5032529;28;20048;-57
2022/08/11 13:16:16;;;;;;;4.05;1.80;;;30.10;50.10;;;;;;5027744;28;20132;-55
2022/08/11 13:18:43;;;;;;;2.13;1.48;;;30.20;50.40;;;;;;5015128;28;20538;-57
2022/08/11 13:21:13;;;;;;;3.75;1.40;;;30.40;50.80;;;;;;5012938;28;20068;-54
2022/08/11 13:23:51;;;;;;;2.97;1.50;;;30.30;49.10;;;;;;5001084;28;20045;-58
2022/08/11 13:26:32;;;;;;;5.13;1.50;;;30.30;50.30;;;;;;5029285;28;20076;-56
2022/08/11 13:29:20;;;;;;;10.43;2.47;;;30.30;49.80;;;;;;5024084;28;20052;-55
2022/08/11 13:31:46;;;;;;;5.53;1.85;;;30.30;48.80;;;;;;5010456;28;20156;-56
2022/08/11 13:34:15;;;;;;;9.50;1.60;;;30.50;49.60;;;;;;5015498;28;20044;-57
2022/08/11 13:36:42;;;;;;;8.93;2.17;;;30.50;49.10;;;;;;5007391;28;20150;-57
2022/08/11 13:39:09;;;;;;;11.45;2.30;;;30.50;48.80;;;;;;5020941;28;20120;-56
2022/08/11 13:41:38;;;;;;;10.07;3.60;;;30.50;49.50;;;;;;5014560;28;20049;-58
2022/08/11 13:44:09;;;;;;;9.73;1.52;;;30.60;48.90;;;;;;4998956;28;20210;-57
2022/08/11 13:46:36;;;;;;;3.08;1.38;;;30.60;48.50;;;;;;5033014;28;21000;-58
2022/08/11 13:49:07;;;;;;;9.27;2.08;;;30.60;49.10;;;;;;5027033;28;20081;-58
2022/08/11 13:51:36;;;;;;;6.28;1.77;;;30.70;48.40;;;;;;5007674;28;20065;-57
2022/08/11 13:54:10;;;;;;;3.30;1.58;;;30.70;47.10;;;;;;5022743;28;20144;-59
2022/08/11 13:56:38;;;;;;;5.07;1.42;;;30.80;47.60;;;;;;5007516;28;20141;-60
2022/08/11 13:59:09;;;;;;;15.27;1.63;;;30.80;47.70;;;;;;5023800;28;20060;-61
2022/08/11 14:01:42;;;;;;;6.35;1.75;;;30.80;46.80;;;;;;5035711;28;20504;-57
2022/08/11 14:04:40;;;;;;;2.42;1.20;;;30.90;46.80;;;;;;4998256;28;20042;-56
2022/08/11 14:07:08;;;;;;;2.47;1.35;;;31.00;47.20;;;;;;5035112;28;20056;-56
2022/08/11 14:09:38;;;;;;;5.28;1.00;;;31.00;46.50;;;;;;5024913;28;20499;-57
2022/08/11 14:15:09;;;;;;;4.85;1.52;;;31.40;44.30;;;;;;5039666;28;20061;-58
2022/08/11 14:17:37;;;;;;;5.80;1.60;;;31.60;46.40;;;;;;5032994;28;20057;-56
2022/08/11 14:20:16;;;;;;;1.92;0.90;;;31.90;46.50;;;;;;5031142;28;20045;-57
2022/08/11 14:23:03;;;;;;;10.95;1.50;;;32.40;44.80;;;;;;5013601;28;20065;-57
2022/08/11 14:25:30;;;;;;;4.32;1.23;;;33.10;45.00;;;;;;5024782;28;20140;-62
2022/08/11 14:28:17;;;;;;;4.03;1.15;;;33.60;44.60;;;;;;5013597;28;20061;-57
2022/08/11 14:31:01;;;;;;;5.80;1.30;;;34.10;44.90;;;;;;5027221;28;20075;-59
2022/08/11 14:33:29;;;;;;;7.60;1.83;;;34.50;44.20;;;;;;5016107;28;20084;-58
2022/08/11 14:36:16;;;;;;;2.47;1.15;;;34.90;43.60;;;;;;5016975;28;20063;-58
2022/08/11 14:38:43;;;;;;;9.70;2.25;;;34.90;43.50;;;;;;5044260;28;20063;-58
2022/08/11 14:49:27;;;;;;;6.30;2.17;;;36.10;42.30;;;;;;5026981;28;20064;-60
2022/08/11 14:51:54;;;;;;;3.13;1.70;;;36.40;41.60;;;;;;5006707;28;20042;-58
2022/08/11 14:57:12;;;;;;;6.80;1.90;;;36.70;39.80;;;;;;5018071;28;20133;-58
2022/08/11 14:59:39;;;;;;;6.80;1.77;;;36.80;41.10;;;;;;5020720;28;20077;-58
2022/08/11 15:04:51;;;;;;;6.25;1.58;;;36.80;41.10;;;;;;5018017;28;20095;-59
2022/08/11 15:07:28;;;;;;;7.82;1.45;;;36.90;40.40;;;;;;5020792;28;20085;-59
2022/08/11 15:09:59;;;;;;;4.35;1.20;;;37.00;40.10;;;;;;5011805;28;20129;-59
2022/08/11 15:12:41;;;;;;;6.78;1.60;;;37.00;39.10;;;;;;5019311;28;20065;-58
2022/08/11 15:17:56;;;;;;;7.03;2.05;;;37.30;39.60;;;;;;5018615;28;20080;-58
2022/08/11 15:26:12;;;;;;;6.00;1.67;;;36.70;39.70;;;;;;5007029;28;20104;-56
2022/08/11 15:37:26;;;;;;;1.98;1.23;;;37.30;39.00;;;;;;5023664;28;20133;-55
2022/08/11 15:46:00;;;;;;;4.10;1.27;;;37.60;38.50;;;;;;5009820;28;20077;-57
2022/08/11 15:49:05;;;;;;;4.50;1.80;;;37.90;39.20;;;;;;5005827;28;20141;-59
2022/08/11 15:51:38;;;;;;;3.38;1.52;;;37.70;36.30;;;;;;4947971;28;20141;-57
2022/08/11 15:54:12;;;;;;;7.03;1.70;;;37.40;38.00;;;;;;5013895;28;20088;-57
2022/08/11 15:56:40;;;;;;;9.20;2.20;;;37.20;37.60;;;;;;5017956;28;20089;-58
2022/08/11 16:04:53;;;;;;;10.52;1.45;;;37.60;38.10;;;;;;5012339;28;20140;-58
2022/08/11 16:07:26;;;;;;;5.32;2.20;;;37.70;38.30;;;;;;5025009;28;20056;-57
2022/08/11 16:10:18;;;;;;;5.43;1.98;;;37.60;38.00;;;;;;5013673;28;20104;-58
2022/08/11 16:18:55;;;;;;;2.15;1.48;;;37.60;37.80;;;;;;5007147;28;20452;-59
2022/08/11 16:21:26;;;;;;;4.13;1.48;;;37.60;35.90;;;;;;5017846;28;20227;-58
2022/08/11 16:24:06;;;;;;;6.30;1.83;;;37.70;37.20;;;;;;5007240;28;20699;-57
2022/08/11 16:26:35;;;;;;;6.00;1.85;;;37.70;36.00;;;;;;5005457;28;20100;-58
2022/08/11 16:29:24;;;;;;;3.10;1.30;;;37.50;37.20;;;;;;5007491;28;20054;-57
2022/08/11 16:40:08;;;;;;;5.82;1.63;;;37.60;37.10;;;;;;5019923;28;20095;-57
2022/08/11 16:48:27;;;;;;;4.65;1.17;;;37.40;37.30;;;;;;5015238;28;20326;-57
2022/08/11 16:51:06;;;;;;;6.85;1.33;;;37.30;37.30;;;;;;5018916;28;20063;-57
2022/08/11 16:53:33;;;;;;;2.80;1.25;;;37.30;36.60;;;;;;5024273;28;20045;-57
2022/08/11 16:56:26;;;;;;;3.90;1.38;;;37.10;37.20;;;;;;5016104;28;20076;-57
2022/08/11 17:01:41;;;;;;;2.20;1.35;;;37.50;37.20;;;;;;5011476;28;20482;-61
2022/08/11 17:13:40;;;;;;;3.25;1.48;;;36.90;36.10;;;;;;4994951;28;20124;-58
2022/08/11 17:16:11;;;;;;;3.10;1.48;;;36.70;37.00;;;;;;5007918;28;20540;-57
2022/08/11 17:18:43;;;;;;;3.38;1.40;;;36.60;36.60;;;;;;4997224;28;20104;-58
2022/08/11 17:21:13;;;;;;;5.05;1.50;;;36.50;37.50;;;;;;5017166;28;20041;-57
2022/08/11 17:23:53;;;;;;;1.98;1.50;;;36.50;37.50;;;;;;5014835;28;20161;-57
2022/08/11 17:26:24;;;;;;;3.35;1.20;;;36.80;37.20;;;;;;4992961;28;20121;-58
2022/08/11 17:28:56;;;;;;;4.20;1.48;;;36.70;36.60;;;;;;5014687;28;20112;-57
2022/08/11 17:36:54;;;;;;;7.22;1.80;;;36.30;37.10;;;;;;5019437;28;20041;-57
2022/08/11 17:39:28;;;;;;;6.55;1.40;;;36.40;37.50;;;;;;4999339;28;20103;-57
2022/08/11 17:50:10;;;;;;;4.80;1.75;;;36.20;37.90;;;;;;5023785;28;20383;-55
2022/08/11 18:01:05;;;;;;;5.50;1.40;;;35.20;38.10;;;;;;5007861;28;20292;-55
2022/08/11 18:03:38;;;;;;;5.10;1.85;;;35.10;38.60;;;;;;5019311;28;20053;-56
2022/08/11 18:06:07;;;;;;;3.00;1.35;;;35.10;38.60;;;;;;5026969;28;20049;-57
